Time;durP1;ratioP1;P1;durP2;ratioP2;P2;SDS_P1;SDS_P2;PMS_P1;PMS_P2;Temp;Humidity;BMP_temperature;BMP_pressure;BME280_temperature;BME280_humidity;BME280_pressure;Samples;Min_cycle;Max_cycle;Signal;HPM_P1;HPM_P2
2023/05/28 00:01:22;;;;;;;8.18;5.78;;;;;;;14.75;100.00;94508.34;5153171;27;20674;-77
2023/05/28 00:03:49;;;;;;;8.32;5.45;;;;;;;14.78;100.00;94510.34;5153236;27;20200;-78
2023/05/28 00:06:16;;;;;;;8.75;6.55;;;;;;;14.88;100.00;94512.53;5154100;27;20231;-78
2023/05/28 00:08:43;;;;;;;6.85;5.40;;;;;;;14.96;100.00;94518.13;5154480;27;20208;-77
2023/05/28 00:11:11;;;;;;;8.73;6.05;;;;;;;15.07;100.00;94513.66;5154350;27;20229;-77
2023/05/28 00:13:38;;;;;;;9.80;5.95;;;;;;;14.99;100.00;94510.00;5152960;27;20215;-78
2023/05/28 00:16:05;;;;;;;11.13;6.43;;;;;;;14.86;100.00;94520.25;5142207;27;20205;-77
2023/05/28 00:18:32;;;;;;;7.75;6.35;;;;;;;14.67;100.00;94522.16;5135837;27;20675;-77
2023/05/28 00:21:00;;;;;;;11.73;6.55;;;;;;;14.53;100.00;94517.16;5152541;27;20203;-77
2023/05/28 00:23:27;;;;;;;12.82;6.88;;;;;;;14.34;100.00;94525.28;5152915;27;20260;-77
2023/05/28 00:25:54;;;;;;;12.00;7.20;;;;;;;14.36;100.00;94517.50;5152319;27;20212;-77
2023/05/28 00:28:22;;;;;;;10.80;6.63;;;;;;;14.28;100.00;94513.84;5152450;27;20684;-79
2023/05/28 00:30:49;;;;;;;11.70;7.47;;;;;;;14.24;100.00;94516.47;5152324;27;20317;-78
2023/05/28 00:33:16;;;;;;;9.95;6.85;;;;;;;14.34;100.00;94509.72;5152510;27;20209;-78
2023/05/28 00:35:43;;;;;;;9.77;6.05;;;;;;;14.26;100.00;94507.97;5152709;27;20208;-79
2023/05/28 00:38:09;;;;;;;8.00;5.85;;;;;;;14.08;100.00;94507.53;5152185;27;20566;-78
2023/05/28 00:40:36;;;;;;;8.27;6.13;;;;;;;14.06;100.00;94507.09;5152073;27;20219;-78
2023/05/28 00:43:03;;;;;;;8.25;6.25;;;;;;;14.14;100.00;94506.13;5152711;27;20558;-78
2023/05/28 00:45:31;;;;;;;8.18;6.18;;;;;;;14.12;100.00;94507.63;5152023;27;20200;-78
2023/05/28 00:47:58;;;;;;;5.88;4.63;;;;;;;14.05;100.00;94497.34;5152546;27;20655;-77
2023/05/28 00:50:28;;;;;;;10.10;5.60;;;;;;;13.97;100.00;94501.03;5152114;27;20236;-77
2023/05/28 00:52:56;;;;;;;7.07;5.60;;;;;;;14.09;100.00;94498.22;5152516;27;20583;-77
2023/05/28 00:55:23;;;;;;;6.40;4.60;;;;;;;14.12;100.00;94505.69;5152155;27;20663;-77
2023/05/28 00:57:54;;;;;;;7.65;5.07;;;;;;;14.16;100.00;94503.06;5151879;27;20200;-78
2023/05/28 01:00:21;;;;;;;6.20;4.43;;;;;;;14.17;100.00;94499.97;5152096;27;20288;-77
2023/05/28 01:02:49;;;;;;;7.47;4.63;;;;;;;14.10;100.00;94499.00;5142842;27;20581;-78
2023/05/28 01:05:17;;;;;;;6.45;4.95;;;;;;;14.13;100.00;94495.56;5133652;27;20710;-78
2023/05/28 01:07:44;;;;;;;7.32;4.43;;;;;;;13.96;100.00;94488.56;5151473;27;20712;-78
2023/05/28 01:10:11;;;;;;;6.50;4.85;;;;;;;14.00;100.00;94500.34;5151780;27;20250;-78
2023/05/28 01:12:39;;;;;;;7.78;4.50;;;;;;;13.90;100.00;94498.16;5151261;27;20253;-78
2023/05/28 01:15:07;;;;;;;6.55;4.72;;;;;;;13.87;100.00;94485.22;5151299;27;20715;-78
2023/05/28 01:17:34;;;;;;;9.45;5.15;;;;;;;13.85;100.00;94476.63;5151095;27;20689;-78
2023/05/28 01:20:10;;;;;;;10.82;5.97;;;;;;;13.77;100.00;94474.88;5151366;27;20678;-78
2023/05/28 01:22:38;;;;;;;6.78;4.40;;;;;;;13.75;100.00;94471.69;5151399;27;20659;-78
2023/05/28 01:25:09;;;;;;;7.43;5.25;;;;;;;13.78;100.00;94469.06;5151827;27;20249;-79
2023/05/28 01:27:39;;;;;;;6.57;4.80;;;;;;;13.84;100.00;94472.31;5150427;27;20283;-78
2023/05/28 01:30:09;;;;;;;7.80;4.75;;;;;;;13.78;100.00;94481.91;5151668;27;20630;-78
2023/05/28 01:32:36;;;;;;;8.00;5.10;;;;;;;13.70;100.00;94480.91;5151784;27;20323;-78
2023/05/28 01:35:03;;;;;;;7.47;4.88;;;;;;;13.83;100.00;94476.97;5151614;27;20203;-78
2023/05/28 01:37:33;;;;;;;5.95;4.00;;;;;;;13.89;100.00;94477.50;5151464;27;20204;-78
2023/05/28 01:40:02;;;;;;;7.43;4.70;;;;;;;13.80;100.00;94474.19;5151222;27;20212;-78
2023/05/28 01:42:31;;;;;;;8.43;5.13;;;;;;;13.75;100.00;94479.88;5151317;27;20200;-78
2023/05/28 01:44:59;;;;;;;6.70;4.93;;;;;;;13.69;100.00;94484.78;5151196;27;20207;-78
2023/05/28 01:47:27;;;;;;;6.82;4.45;;;;;;;13.76;100.00;94478.72;5134981;27;20236;-78
2023/05/28 01:49:55;;;;;;;8.48;4.97;;;;;;;13.72;100.00;94478.63;5130228;27;20687;-79
2023/05/28 01:52:22;;;;;;;5.38;4.30;;;;;;;13.74;100.00;94476.34;5146379;27;20663;-78
2023/05/28 01:54:49;;;;;;;6.30;4.30;;;;;;;13.73;100.00;94468.53;5151155;27;20200;-78
2023/05/28 01:57:16;;;;;;;5.47;4.10;;;;;;;13.73;100.00;94463.09;5150240;27;20204;-77
2023/05/28 01:59:44;;;;;;;6.85;4.40;;;;;;;13.88;100.00;94459.59;5140796;27;20205;-78
2023/05/28 02:02:11;;;;;;;9.63;4.70;;;;;;;13.86;100.00;94475.47;5129758;27;20220;-78
2023/05/28 02:04:38;;;;;;;7.70;4.93;;;;;;;13.91;100.00;94464.31;5130237;27;20212;-78
2023/05/28 02:07:05;;;;;;;5.28;3.95;;;;;;;13.98;100.00;94469.16;5133151;27;20222;-78
2023/05/28 02:09:32;;;;;;;8.43;4.35;;;;;;;13.97;100.00;94468.34;5151179;27;20290;-78
2023/05/28 02:12:02;;;;;;;6.60;4.82;;;;;;;14.05;100.00;94469.31;5150942;27;20724;-78
2023/05/28 02:14:29;;;;;;;6.60;5.18;;;;;;;14.15;100.00;94474.22;5151026;27;20270;-78
2023/05/28 02:16:58;;;;;;;7.80;4.25;;;;;;;14.17;100.00;94461.03;5150823;27;20307;-78
2023/05/28 02:19:25;;;;;;;5.85;4.20;;;;;;;14.12;100.00;94469.47;5151069;27;20666;-78
2023/05/28 02:21:53;;;;;;;6.63;4.07;;;;;;;14.01;100.00;94469.22;5149972;27;20199;-78
2023/05/28 02:24:20;;;;;;;8.70;4.35;;;;;;;13.98;100.00;94471.88;5150551;27;20212;-78
2023/05/28 02:26:47;;;;;;;5.55;4.03;;;;;;;13.93;100.00;94470.22;5150480;27;20207;-78
2023/05/28 02:29:14;;;;;;;6.65;4.13;;;;;;;14.02;100.00;94470.81;5137713;27;20200;-78
2023/05/28 02:31:40;;;;;;;5.32;4.28;;;;;;;14.00;100.00;94478.53;5129935;27;20236;-79
2023/05/28 02:34:09;;;;;;;10.45;4.72;;;;;;;13.93;100.00;94472.94;5130263;27;20200;-78
2023/05/28 02:36:36;;;;;;;7.53;4.13;;;;;;;13.97;100.00;94479.25;5130055;27;20284;-79
2023/05/28 02:39:03;;;;;;;6.50;4.30;;;;;;;13.90;100.00;94473.63;5130594;27;20205;-79
2023/05/28 02:41:30;;;;;;;5.93;4.05;;;;;;;13.95;100.00;94469.84;5155048;27;20287;-79
2023/05/28 02:43:57;;;;;;;5.75;3.83;;;;;;;13.97;100.00;94479.25;5154482;27;20204;-79
2023/05/28 02:46:24;;;;;;;5.18;3.72;;;;;;;14.04;100.00;94465.81;5154934;27;20296;-78
2023/05/28 02:48:50;;;;;;;6.80;4.30;;;;;;;14.07;100.00;94472.50;5154708;27;20636;-79
2023/05/28 02:51:18;;;;;;;9.05;3.90;;;;;;;13.99;100.00;94476.97;5133830;27;20228;-79
2023/05/28 02:53:45;;;;;;;4.97;3.75;;;;;;;14.01;100.00;94474.69;5134061;27;20269;-79
2023/05/28 02:56:12;;;;;;;5.80;4.20;;;;;;;14.04;100.00;94479.44;5154572;27;20200;-79
2023/05/28 02:58:39;;;;;;;4.65;4.10;;;;;;;14.07;100.00;94484.19;5154637;27;20193;-79
2023/05/28 03:01:06;;;;;;;4.07;3.67;;;;;;;14.15;100.00;94485.13;5154287;27;20204;-78
2023/05/28 03:03:33;;;;;;;6.20;4.20;;;;;;;14.13;100.00;94477.31;5154011;27;20264;-81
2023/05/28 03:06:00;;;;;;;7.32;4.68;;;;;;;14.28;100.00;94478.44;5146716;27;20216;-79
2023/05/28 03:08:28;;;;;;;6.18;4.43;;;;;;;14.32;100.00;94473.06;5149359;27;20238;-79
2023/05/28 03:10:55;;;;;;;5.75;4.68;;;;;;;14.46;100.00;94473.41;5154127;27;20235;-79
2023/05/28 03:13:22;;;;;;;5.25;3.95;;;;;;;14.21;100.00;94468.13;5154415;27;20208;-79
2023/05/28 03:15:48;;;;;;;5.05;3.90;;;;;;;14.19;100.00;94481.34;5154396;27;20196;-79
2023/05/28 03:18:15;;;;;;;5.45;4.30;;;;;;;14.29;100.00;94479.22;5154301;27;20534;-79
2023/05/28 03:20:42;;;;;;;6.03;4.35;;;;;;;14.35;100.00;94475.09;5154247;27;20327;-79
2023/05/28 03:23:09;;;;;;;5.55;3.47;;;;;;;14.28;100.00;94477.63;5153428;27;20196;-79
2023/05/28 03:25:37;;;;;;;4.60;3.70;;;;;;;14.28;100.00;94472.97;5153295;27;20212;-79
2023/05/28 03:28:04;;;;;;;6.50;4.00;;;;;;;14.34;100.00;94487.13;5153803;27;20211;-79
2023/05/28 03:30:31;;;;;;;5.00;3.78;;;;;;;14.32;100.00;94482.03;5153902;27;20256;-78
2023/05/28 03:32:58;;;;;;;10.63;4.00;;;;;;;14.32;100.00;94481.25;5153683;27;20390;-77
2023/05/28 03:35:25;;;;;;;6.18;4.30;;;;;;;14.39;100.00;94481.38;5153877;27;20200;-78
2023/05/28 03:37:51;;;;;;;7.38;4.22;;;;;;;14.34;100.00;94476.22;5153874;27;20212;-78
2023/05/28 03:40:18;;;;;;;6.57;3.97;;;;;;;14.26;100.00;94479.91;5153372;27;20218;-78
2023/05/28 03:42:47;;;;;;;5.05;3.90;;;;;;;14.39;100.00;94479.44;5149156;27;20727;-77
2023/05/28 03:45:15;;;;;;;5.70;3.67;;;;;;;14.45;100.00;94478.06;5132963;27;20218;-77
2023/05/28 03:47:41;;;;;;;5.22;3.80;;;;;;;14.52;100.00;94477.44;5132549;27;20304;-77
2023/05/28 03:50:09;;;;;;;4.75;3.40;;;;;;;14.62;100.00;94482.34;5132707;27;20204;-77
2023/05/28 03:52:36;;;;;;;6.55;3.65;;;;;;;14.62;100.00;94482.34;5131779;27;20271;-77
2023/05/28 03:55:04;;;;;;;4.85;3.70;;;;;;;14.79;99.81;94475.66;5132842;27;20197;-77
2023/05/28 03:57:30;;;;;;;4.28;3.75;;;;;;;14.79;99.26;94486.59;5133185;27;20265;-76
2023/05/28 03:59:59;;;;;;;4.40;4.00;;;;;;;14.82;99.58;94486.66;5149734;27;20200;-78
2023/05/28 04:02:26;;;;;;;5.85;4.00;;;;;;;14.97;99.94;94486.97;5133368;27;20593;-78
2023/05/28 04:04:52;;;;;;;5.22;3.75;;;;;;;14.94;100.00;94472.88;5132752;27;20575;-77
2023/05/28 04:07:19;;;;;;;6.28;4.22;;;;;;;15.01;99.17;94483.16;5152658;27;20204;-77
2023/05/28 04:09:46;;;;;;;8.88;4.55;;;;;;;14.98;100.00;94483.09;5152977;27;20204;-77
2023/05/28 04:12:13;;;;;;;6.43;4.43;;;;;;;14.99;100.00;94481.94;5153327;27;20593;-78
2023/05/28 04:14:41;;;;;;;6.45;4.35;;;;;;;15.03;100.00;94491.00;5153330;27;20231;-77
2023/05/28 04:17:10;;;;;;;7.05;4.13;;;;;;;15.26;100.00;94489.13;5153279;27;20217;-78
2023/05/28 04:19:37;;;;;;;7.78;4.38;;;;;;;15.39;98.97;94493.25;5152676;27;20212;-79
2023/05/28 04:22:04;;;;;;;5.15;4.18;;;;;;;15.36;100.00;94491.25;5152892;27;20200;-77
2023/05/28 04:24:31;;;;;;;5.78;4.03;;;;;;;15.26;98.65;94489.13;5151757;27;20213;-76
2023/05/28 04:26:59;;;;;;;9.75;4.85;;;;;;;15.41;98.69;94485.50;5132293;27;20208;-77
2023/05/28 04:29:29;;;;;;;5.25;3.72;;;;;;;15.46;97.29;94482.47;5132131;27;20659;-76
2023/05/28 04:31:57;;;;;;;6.18;4.18;;;;;;;15.54;93.48;94478.72;5131539;27;20238;-76
2023/05/28 04:34:26;;;;;;;7.63;5.00;;;;;;;15.66;95.82;94494.19;5134469;27;20205;-76
2023/05/28 04:36:52;;;;;;;5.80;4.40;;;;;;;15.63;95.33;94492.97;5152442;27;20612;-76
2023/05/28 04:39:20;;;;;;;5.57;4.30;;;;;;;15.75;96.70;94493.94;5152033;27;20204;-76
2023/05/28 04:41:47;;;;;;;6.30;5.50;;;;;;;15.93;97.21;94489.56;5151735;27;20196;-77
2023/05/28 04:44:15;;;;;;;9.63;4.30;;;;;;;15.90;96.38;94495.75;5135667;27;20201;-77
2023/05/28 04:46:43;;;;;;;9.13;5.53;;;;;;;16.11;97.72;94500.81;5131218;27;20259;-77
2023/05/28 04:49:11;;;;;;;5.63;4.32;;;;;;;15.98;97.38;94492.03;5132000;27;20198;-74
2023/05/28 04:51:40;;;;;;;6.18;4.63;;;;;;;16.15;96.95;94496.19;5130954;27;20239;-75
2023/05/28 04:54:06;;;;;;;8.85;5.82;;;;;;;16.20;97.19;94502.13;5130905;27;20495;-75
2023/05/28 04:56:33;;;;;;;7.03;4.97;;;;;;;16.35;98.12;94503.16;5142832;27;20204;-75
2023/05/28 04:59:03;;;;;;;7.32;4.82;;;;;;;16.39;97.36;94500.47;5146739;27;20693;-74
2023/05/28 05:01:32;;;;;;;8.25;5.63;;;;;;;16.46;98.26;94500.56;5142563;27;20193;-74
2023/05/28 05:03:59;;;;;;;8.52;4.70;;;;;;;16.24;96.34;94494.78;5150818;27;20204;-74
2023/05/28 05:06:26;;;;;;;8.38;4.70;;;;;;;16.37;95.38;94492.66;5151647;27;20651;-74
2023/05/28 05:08:54;;;;;;;9.75;4.88;;;;;;;16.47;93.99;94496.69;5151222;27;20295;-76
2023/05/28 05:11:21;;;;;;;8.07;4.72;;;;;;;16.47;94.99;94493.94;5151422;27;20259;-76
2023/05/28 05:13:48;;;;;;;8.20;5.07;;;;;;;16.49;94.38;94492.44;5151402;27;20224;-73
2023/05/28 05:16:16;;;;;;;7.70;6.13;;;;;;;16.49;94.84;94499.84;5150366;27;20275;-74
2023/05/28 05:18:43;;;;;;;7.25;5.70;;;;;;;16.18;95.74;94493.50;5145826;27;20693;-74
2023/05/28 05:21:12;;;;;;;8.80;6.07;;;;;;;16.16;95.91;94484.88;5148010;27;20208;-75
2023/05/28 05:23:39;;;;;;;9.68;5.72;;;;;;;16.00;95.21;94495.16;5137837;27;20221;-75
2023/05/28 05:26:09;;;;;;;7.93;5.63;;;;;;;16.07;94.22;94484.34;5145269;27;20635;-74
2023/05/28 05:28:36;;;;;;;6.55;5.32;;;;;;;16.02;93.07;94481.13;5146133;27;20188;-76
2023/05/28 05:31:03;;;;;;;8.18;5.15;;;;;;;16.04;92.54;94482.34;5151128;27;20216;-74
2023/05/28 05:33:30;;;;;;;9.73;5.97;;;;;;;16.31;93.64;94478.47;5148426;27;20200;-74
2023/05/28 05:35:57;;;;;;;9.60;5.75;;;;;;;16.42;93.05;94483.31;5145421;27;20200;-74
2023/05/28 05:38:24;;;;;;;18.75;10.80;;;;;;;16.75;92.05;94479.94;5148481;27;20662;-75
2023/05/28 05:40:50;;;;;;;9.07;6.32;;;;;;;17.07;92.05;94485.84;5146554;27;20230;-74
2023/05/28 05:43:18;;;;;;;13.13;5.45;;;;;;;17.11;89.42;94492.91;5149580;27;20203;-74
2023/05/28 05:45:45;;;;;;;7.22;4.90;;;;;;;17.17;90.34;94479.69;5136185;27;20317;-74
2023/05/28 05:48:12;;;;;;;10.77;5.57;;;;;;;17.34;89.80;94482.66;5141612;27;20212;-74
2023/05/28 05:50:48;;;;;;;9.80;6.93;;;;;;;17.22;89.47;94482.09;5140710;27;20681;-74
2023/05/28 05:53:15;;;;;;;10.20;5.57;;;;;;;17.38;90.05;94490.88;5149496;27;20222;-74
2023/05/28 05:55:42;;;;;;;7.05;5.30;;;;;;;17.46;90.09;94487.06;5151228;27;20208;-74
2023/05/28 05:58:09;;;;;;;7.60;5.03;;;;;;;17.38;89.58;94482.66;5150619;27;20192;-74
2023/05/28 06:00:38;;;;;;;7.15;5.65;;;;;;;17.30;89.48;94489.22;5150243;27;20204;-74
2023/05/28 06:03:06;;;;;;;9.30;5.70;;;;;;;17.18;90.86;94484.00;5150848;27;20605;-75
2023/05/28 06:05:33;;;;;;;7.15;5.13;;;;;;;17.26;90.71;94482.91;5144898;27;20265;-74
2023/05/28 06:07:59;;;;;;;8.43;6.13;;;;;;;17.16;89.63;94478.91;5128221;27;20603;-74
2023/05/28 06:10:26;;;;;;;8.05;4.82;;;;;;;17.10;89.27;94490.53;5133802;27;20603;-74
2023/05/28 06:12:53;;;;;;;5.85;4.30;;;;;;;17.11;88.90;94487.44;5150636;27;20235;-74
2023/05/28 06:15:21;;;;;;;6.95;5.90;;;;;;;17.14;91.27;94492.16;5148926;27;20256;-74
2023/05/28 06:17:49;;;;;;;10.52;4.70;;;;;;;16.83;88.12;94490.59;5151537;27;20188;-73
2023/05/28 06:20:16;;;;;;;18.38;12.20;;;;;;;16.69;86.39;94495.84;5150279;27;20291;-75
2023/05/28 06:22:43;;;;;;;6.82;4.68;;;;;;;16.73;89.77;94491.25;5145853;27;20200;-74
2023/05/28 06:25:10;;;;;;;9.35;5.53;;;;;;;16.46;92.73;94500.56;5155198;27;20592;-72
2023/05/28 06:27:37;;;;;;;6.40;4.68;;;;;;;16.40;92.29;94513.75;5153755;27;20203;-75
2023/05/28 06:30:05;;;;;;;6.53;5.13;;;;;;;16.58;93.44;94503.88;5147682;27;20227;-74
2023/05/28 06:32:32;;;;;;;6.45;5.18;;;;;;;16.66;89.88;94499.34;5133336;27;20734;-73
2023/05/28 06:35:02;;;;;;;8.23;4.82;;;;;;;16.53;90.67;94500.69;5143078;27;20611;-73
2023/05/28 06:37:29;;;;;;;7.85;5.05;;;;;;;16.38;90.54;94504.38;5148693;27;20204;-73
2023/05/28 06:39:56;;;;;;;7.00;4.38;;;;;;;16.17;89.54;94504.81;5147339;27;20200;-75
2023/05/28 06:42:22;;;;;;;8.07;4.55;;;;;;;15.87;92.67;94518.34;5153819;27;20200;-74
2023/05/28 06:44:49;;;;;;;8.18;4.82;;;;;;;15.63;96.28;94514.00;5153354;27;20199;-77
2023/05/28 06:47:19;;;;;;;7.30;4.90;;;;;;;15.52;97.28;94513.78;5148702;27;20322;-77
2023/05/28 06:49:46;;;;;;;9.00;5.57;;;;;;;15.49;97.80;94514.50;5149625;27;20256;-78
2023/05/28 06:52:14;;;;;;;7.88;6.00;;;;;;;15.68;98.84;94515.66;5146878;27;20239;-77
2023/05/28 06:54:41;;;;;;;7.13;4.22;;;;;;;15.81;96.42;94520.59;5152293;27;20200;-75
2023/05/28 06:57:07;;;;;;;7.78;5.35;;;;;;;16.05;97.63;94513.97;5153069;27;20197;-76
2023/05/28 06:59:34;;;;;;;9.05;4.63;;;;;;;16.09;95.55;94514.84;5150304;27;20200;-77
2023/05/28 07:02:01;;;;;;;5.70;4.00;;;;;;;16.08;93.81;94513.25;5151720;27;20216;-76
2023/05/28 07:04:29;;;;;;;6.75;4.95;;;;;;;15.96;94.12;94513.44;5132994;27;20205;-77
2023/05/28 07:06:55;;;;;;;5.57;3.85;;;;;;;16.22;95.65;94513.50;5133764;27;20562;-76
2023/05/28 07:09:24;;;;;;;9.40;4.70;;;;;;;16.32;95.85;94514.81;5134919;27;20228;-78
2023/05/28 07:11:51;;;;;;;7.80;5.57;;;;;;;16.62;98.96;94512.16;5137968;27;20285;-76
2023/05/28 07:14:17;;;;;;;7.95;5.15;;;;;;;16.50;94.74;94512.38;5155359;27;20200;-76
2023/05/28 07:16:44;;;;;;;7.20;4.90;;;;;;;16.86;96.84;94511.75;5154229;27;20261;-74
2023/05/28 07:19:11;;;;;;;7.65;5.03;;;;;;;17.67;94.86;94506.50;5153151;27;20563;-73
2023/05/28 07:21:38;;;;;;;9.63;5.40;;;;;;;18.09;89.08;94499.84;5148096;27;20208;-73
2023/05/28 07:24:06;;;;;;;9.60;5.10;;;;;;;18.93;82.63;94496.19;5147315;27;20636;-73
2023/05/28 07:26:35;;;;;;;9.60;5.47;;;;;;;19.32;85.27;94496.38;5150406;27;20734;-73
2023/05/28 07:29:02;;;;;;;6.45;4.97;;;;;;;19.54;78.88;94497.28;5141213;27;20592;-73
2023/05/28 07:31:31;;;;;;;7.15;5.45;;;;;;;19.33;83.01;94497.16;5151415;27;20575;-72
2023/05/28 07:33:58;;;;;;;7.20;5.18;;;;;;;18.59;81.61;94503.00;5152619;27;20244;-72
2023/05/28 07:36:24;;;;;;;6.80;5.60;;;;;;;18.61;83.55;94500.69;5152535;27;20208;-73
2023/05/28 07:38:51;;;;;;;8.40;5.50;;;;;;;18.28;83.08;94499.66;5152964;27;20200;-72
2023/05/28 07:41:18;;;;;;;7.53;5.28;;;;;;;18.87;82.26;94489.47;5133443;27;20209;-72
2023/05/28 07:43:46;;;;;;;8.52;5.60;;;;;;;19.27;82.07;94482.25;5130898;27;20212;-72
2023/05/28 07:46:14;;;;;;;7.85;5.53;;;;;;;18.78;82.52;94492.56;5137945;27;20597;-73
2023/05/28 07:48:40;;;;;;;5.47;4.20;;;;;;;18.16;82.33;94486.22;5133261;27;20208;-75
2023/05/28 07:51:09;;;;;;;5.25;3.72;;;;;;;17.79;83.84;94493.69;5151066;27;20606;-73
2023/05/28 07:53:35;;;;;;;5.70;3.95;;;;;;;17.53;86.72;94495.34;5148858;27;20232;-74
2023/05/28 07:56:02;;;;;;;5.80;3.70;;;;;;;17.18;88.03;94492.22;5150382;27;20196;-74
2023/05/28 07:58:29;;;;;;;5.00;3.10;;;;;;;17.06;87.37;94487.78;5148473;27;20205;-73
2023/05/28 08:00:58;;;;;;;3.20;2.13;;;;;;;16.77;88.50;94483.09;5149817;27;20196;-74
2023/05/28 08:03:27;;;;;;;4.63;3.20;;;;;;;16.68;91.64;94484.13;5151460;27;20223;-73
2023/05/28 08:05:54;;;;;;;4.95;3.47;;;;;;;16.96;92.25;94483.72;5142751;27;20229;-74
2023/05/28 08:08:22;;;;;;;6.30;3.63;;;;;;;17.07;92.62;94494.81;5146449;27;20242;-73
2023/05/28 08:10:48;;;;;;;5.32;3.20;;;;;;;17.11;90.17;94486.63;5151913;27;20655;-72
2023/05/28 08:13:15;;;;;;;4.10;3.05;;;;;;;17.02;89.70;94497.88;5151942;27;20232;-73
2023/05/28 08:15:42;;;;;;;3.10;2.00;;;;;;;16.93;88.64;94497.38;5151106;27;20263;-76
2023/05/28 08:18:13;;;;;;;4.28;2.72;;;;;;;16.68;89.62;94491.53;5148992;27;20643;-73
2023/05/28 08:20:40;;;;;;;3.63;2.65;;;;;;;16.82;88.87;94489.00;5130763;27;20196;-74
2023/05/28 08:23:07;;;;;;;4.50;2.90;;;;;;;16.98;88.15;94484.16;5147989;27;20208;-74
2023/05/28 08:25:33;;;;;;;6.78;3.33;;;;;;;17.46;87.60;94495.28;5150087;27;20192;-73
2023/05/28 08:28:02;;;;;;;5.07;2.70;;;;;;;17.95;83.72;94496.97;5151425;27;20575;-74
2023/05/28 08:30:28;;;;;;;4.00;2.80;;;;;;;18.23;83.22;94491.75;5141732;27;20587;-73
2023/05/28 08:32:55;;;;;;;4.93;3.08;;;;;;;19.36;81.05;94485.41;5131455;27;20714;-74
2023/05/28 08:35:25;;;;;;;7.10;3.42;;;;;;;19.60;75.04;94484.72;5146808;27;20212;-73
2023/05/28 08:37:52;;;;;;;5.63;2.55;;;;;;;19.55;73.85;94482.34;5150357;27;20659;-76
2023/05/28 08:40:19;;;;;;;2.67;2.28;;;;;;;19.42;76.56;94489.34;5152138;27;20208;-74
2023/05/28 08:42:46;;;;;;;5.03;2.60;;;;;;;19.58;73.43;94481.56;5151876;27;20204;-73
2023/05/28 08:45:13;;;;;;;3.05;2.67;;;;;;;19.82;72.83;94485.56;5145768;27;20204;-72
2023/05/28 08:47:40;;;;;;;4.82;2.75;;;;;;;19.59;75.37;94474.91;5151139;27;20227;-73
2023/05/28 08:50:08;;;;;;;4.55;3.05;;;;;;;19.87;73.17;94477.72;5151405;27;20721;-76
2023/05/28 08:52:37;;;;;;;4.20;3.00;;;;;;;19.58;72.70;94476.09;5150735;27;20272;-72
2023/05/28 08:55:04;;;;;;;2.90;2.38;;;;;;;20.00;71.62;94482.84;5150637;27;20294;-71
2023/05/28 08:57:31;;;;;;;3.10;2.58;;;;;;;19.06;73.58;94489.19;5151700;27;20260;-73
2023/05/28 08:59:59;;;;;;;3.33;2.53;;;;;;;18.80;76.20;94481.22;5139566;27;20201;-74
2023/05/28 09:02:27;;;;;;;5.22;2.63;;;;;;;18.83;76.07;94477.72;5149572;27;20204;-71
2023/05/28 09:04:56;;;;;;;3.92;2.28;;;;;;;19.54;70.90;94475.31;5150297;27;20252;-72
2023/05/28 09:07:23;;;;;;;5.13;2.40;;;;;;;19.49;71.84;94478.41;5131124;27;20261;-73
2023/05/28 09:09:52;;;;;;;3.28;2.17;;;;;;;19.44;72.31;94482.28;5142890;27;20303;-78
2023/05/28 09:12:21;;;;;;;2.83;2.53;;;;;;;19.10;75.16;94476.28;5150711;27;20239;-75
2023/05/28 09:14:51;;;;;;;4.88;2.58;;;;;;;18.93;73.92;94478.94;5149649;27;20577;-74
2023/05/28 09:17:18;;;;;;;4.70;2.53;;;;;;;18.72;77.39;94466.66;5143337;27;20201;-72
2023/05/28 09:19:51;;;;;;;3.42;2.33;;;;;;;18.29;75.73;94473.78;5130016;27;20720;-74
2023/05/28 09:22:19;;;;;;;4.55;3.10;;;;;;;17.91;78.62;94485.19;5140327;27;20252;-72
2023/05/28 09:24:52;;;;;;;5.82;3.10;;;;;;;17.61;80.80;94480.59;5149456;27;20391;-71
2023/05/28 09:27:19;;;;;;;2.35;1.30;;;;;;;17.19;82.67;94483.63;5141511;27;20651;-85
2023/05/28 09:29:47;;;;;;;3.45;2.40;;;;;;;17.25;83.95;94479.38;5151522;27;20503;-73
2023/05/28 09:32:19;;;;;;;3.35;2.00;;;;;;;17.02;82.34;94475.97;5140215;27;20760;-75
2023/05/28 09:34:46;;;;;;;4.47;2.03;;;;;;;17.07;83.81;94480.34;5143240;27;20215;-75
2023/05/28 09:37:17;;;;;;;6.07;2.83;;;;;;;17.08;84.42;94479.19;5138869;27;20205;-74
2023/05/28 09:39:45;;;;;;;3.95;2.55;;;;;;;17.04;83.42;94482.66;5129909;27;20248;-70
2023/05/28 09:42:13;;;;;;;6.40;3.17;;;;;;;17.14;82.55;94485.91;5129899;27;20205;-74
2023/05/28 09:44:41;;;;;;;4.82;2.15;;;;;;;17.00;82.38;94481.81;5145343;27;20257;-73
2023/05/28 09:47:15;;;;;;;5.38;3.35;;;;;;;16.92;82.82;94491.13;5149937;27;20665;-73
2023/05/28 09:49:44;;;;;;;5.15;2.15;;;;;;;16.90;82.90;94498.13;5149482;27;20216;-75
2023/05/28 09:52:17;;;;;;;4.85;2.85;;;;;;;16.69;82.93;94498.59;5135910;27;20201;-72
2023/05/28 09:54:46;;;;;;;4.85;2.78;;;;;;;16.80;82.26;94491.34;5142922;27;20817;-72
2023/05/28 09:57:18;;;;;;;5.25;3.13;;;;;;;16.95;82.69;94495.81;5133788;27;20287;-74
2023/05/28 09:59:47;;;;;;;3.35;2.42;;;;;;;17.00;82.32;94481.81;5144972;27;20207;-75
2023/05/28 10:02:25;;;;;;;3.58;2.88;;;;;;;17.00;83.25;94497.47;5151051;27;20212;-72
2023/05/28 10:04:55;;;;;;;7.55;3.78;;;;;;;17.00;83.19;94495.50;5148890;27;20690;-73
2023/05/28 10:07:23;;;;;;;8.00;3.53;;;;;;;17.26;83.14;94496.59;5130482;27;20204;-74
2023/05/28 10:09:51;;;;;;;4.78;3.15;;;;;;;17.68;80.42;94494.38;5129238;27;20208;-75
2023/05/28 10:12:23;;;;;;;21.60;5.07;;;;;;;18.02;79.77;94497.84;5129470;27;20232;-74
2023/05/28 10:14:51;;;;;;;7.38;3.42;;;;;;;17.75;79.52;94499.94;5142947;27;20603;-73
2023/05/28 10:17:18;;;;;;;3.25;2.33;;;;;;;17.61;79.49;94499.78;5129323;27;20201;-72
2023/05/28 10:19:46;;;;;;;5.38;3.35;;;;;;;17.49;80.43;94499.25;5143619;27;20206;-71
2023/05/28 10:22:13;;;;;;;5.90;3.38;;;;;;;17.41;80.15;94503.84;5150723;27;20294;-73
2023/05/28 10:24:41;;;;;;;3.53;2.60;;;;;;;17.56;78.66;94497.34;5149629;27;20465;-77
2023/05/28 10:27:08;;;;;;;5.55;2.28;;;;;;;17.40;79.36;94497.56;5150846;27;20324;-73
2023/05/28 10:29:43;;;;;;;5.65;3.65;;;;;;;17.80;77.76;94501.53;5150242;27;20261;-74
2023/05/28 10:32:14;;;;;;;4.63;3.03;;;;;;;18.48;77.08;94491.94;5149998;27;20686;-75
2023/05/28 10:34:41;;;;;;;5.40;4.20;;;;;;;18.65;74.85;94485.03;5147766;27;20201;-71
2023/05/28 10:37:09;;;;;;;5.03;4.10;;;;;;;18.72;75.01;94490.59;5149794;27;20298;-71
2023/05/28 10:39:40;;;;;;;5.38;3.58;;;;;;;18.71;75.75;94472.53;5149844;27;20212;-72
2023/05/28 10:42:08;;;;;;;4.75;3.13;;;;;;;18.40;75.97;94482.88;5150178;27;20658;-78
2023/05/28 10:44:52;;;;;;;4.30;3.33;;;;;;;18.28;75.41;94477.69;5145202;27;20323;-72
2023/05/28 10:47:19;;;;;;;6.60;3.38;;;;;;;18.64;74.20;94461.50;5142656;27;20292;-72
2023/05/28 10:50:00;;;;;;;6.55;5.32;;;;;;;18.58;74.82;94479.50;5149125;27;20718;-71
2023/05/28 10:52:27;;;;;;;6.07;4.30;;;;;;;18.39;75.58;94466.81;5145818;27;20244;-72
2023/05/28 10:54:55;;;;;;;5.57;3.85;;;;;;;18.59;74.23;94470.88;5142896;27;20200;-71
2023/05/28 10:57:22;;;;;;;5.90;3.60;;;;;;;18.36;74.52;94465.59;5131427;27;20795;-72
2023/05/28 10:59:52;;;;;;;5.35;3.30;;;;;;;18.42;74.13;94466.84;5144203;27;20212;-74
2023/05/28 11:02:22;;;;;;;6.97;3.90;;;;;;;18.54;74.40;94467.69;5153924;27;20212;-75
2023/05/28 11:04:51;;;;;;;5.93;3.55;;;;;;;18.76;73.06;94452.94;5141363;27;20208;-71
2023/05/28 11:07:20;;;;;;;3.90;2.13;;;;;;;18.63;73.75;94451.69;5139651;27;20209;-76
2023/05/28 11:09:49;;;;;;;5.43;3.53;;;;;;;18.96;72.67;94453.47;5153590;27;20558;-72
2023/05/28 11:12:16;;;;;;;8.02;4.95;;;;;;;19.03;71.88;94462.50;5139504;27;20228;-74
2023/05/28 11:14:43;;;;;;;6.63;4.30;;;;;;;19.24;70.62;94452.81;5153655;27;20203;-72
2023/05/28 11:17:13;;;;;;;5.32;4.18;;;;;;;19.00;71.06;94457.78;5153769;27;20212;-72
2023/05/28 11:19:41;;;;;;;5.70;4.78;;;;;;;19.08;71.54;94462.16;5153874;27;20208;-85
2023/05/28 11:22:08;;;;;;;7.05;3.50;;;;;;;19.03;71.58;94445.25;5153335;27;20283;-75
2023/05/28 11:24:51;;;;;;;6.88;4.22;;;;;;;19.06;72.80;94448.00;5153750;27;20204;-75
2023/05/28 11:27:18;;;;;;;5.22;3.92;;;;;;;18.81;72.10;94449.84;5153925;27;20283;-75
2023/05/28 11:29:44;;;;;;;5.28;3.25;;;;;;;18.34;73.34;94454.22;5153407;27;20252;-73
2023/05/28 11:32:13;;;;;;;4.50;4.05;;;;;;;18.38;73.55;94455.03;5152971;27;20212;-76